Time;durP1;ratioP1;P1;durP2;ratioP2;P2;SDS_P1;SDS_P2;PMS_P1;PMS_P2;Temp;Humidity;BMP_temperature;BMP_pressure;BME280_temperature;BME280_humidity;BME280_pressure;Samples;Min_cycle;Max_cycle;Signal;HPM_P1;HPM_P2
2022/09/05 00:02:02;;;;;;;5.28;4.40;;;;;;;19.08;59.12;94444.25;4970190;28;20023;-79
2022/09/05 00:04:51;;;;;;;6.13;5.07;;;;;;;19.09;59.69;94445.81;4956578;28;20486;-80
2022/09/05 00:07:20;;;;;;;6.53;4.75;;;;;;;19.03;59.09;94447.22;4957571;28;20030;-79
2022/09/05 00:10:11;;;;;;;5.88;5.25;;;;;;;18.83;59.01;94417.50;4974128;28;20062;-80
2022/09/05 00:12:38;;;;;;;7.53;5.45;;;;;;;18.85;58.38;94431.44;4956315;28;21035;-78
2022/09/05 00:15:34;;;;;;;6.53;5.57;;;;;;;18.96;58.11;94441.69;4975142;28;20123;-78
2022/09/05 00:18:05;;;;;;;8.02;6.10;;;;;;;18.89;58.56;94443.06;4957556;28;20113;-77
2022/09/05 00:20:54;;;;;;;6.45;5.78;;;;;;;18.86;58.60;94441.09;4973741;28;20034;-80
2022/09/05 00:23:47;;;;;;;7.45;6.47;;;;;;;18.64;58.90;94416.63;4956206;28;20031;-77
2022/09/05 00:26:40;;;;;;;8.82;6.50;;;;;;;18.83;59.21;94452.56;4973887;28;20096;-77
2022/09/05 00:29:39;;;;;;;7.18;6.03;;;;;;;18.82;59.52;94458.31;4955836;28;20022;-79
2022/09/05 00:32:31;;;;;;;10.80;6.43;;;;;;;18.79;60.23;94453.59;4972805;28;20057;-78
2022/09/05 00:35:21;;;;;;;12.63;7.25;;;;;;;18.77;60.36;94451.25;4972671;28;20109;-80
2022/09/05 00:37:49;;;;;;;6.38;5.75;;;;;;;18.71;61.17;94447.28;4974088;28;20382;-79
2022/09/05 00:40:32;;;;;;;9.30;6.90;;;;;;;18.65;60.38;94448.63;4972280;28;20042;-79
2022/09/05 00:43:05;;;;;;;8.85;7.15;;;;;;;18.48;60.47;94428.19;4972622;28;20049;-79
2022/09/05 00:45:42;;;;;;;8.05;7.25;;;;;;;18.71;60.64;94465.34;4957191;28;21246;-82
2022/09/05 00:48:11;;;;;;;8.93;7.03;;;;;;;18.68;61.00;94466.78;4973356;28;20084;-77
2022/09/05 00:51:05;;;;;;;9.32;7.88;;;;;;;18.61;60.88;94458.53;4955871;28;20105;-77
2022/09/05 00:53:50;;;;;;;8.70;7.60;;;;;;;18.67;60.66;94467.94;4943939;28;20042;-81
2022/09/05 00:56:18;;;;;;;;;;;;;;;18.66;61.01;94460.97;4959751;28;20050;-79
2022/09/05 00:58:50;;;;;;;9.65;7.43;;;;;;;18.63;60.52;94461.66;4971366;28;20418;-79
2022/09/05 01:01:50;;;;;;;8.60;7.68;;;;;;;18.63;60.79;94467.03;4971573;28;20505;-80
2022/09/05 01:04:41;;;;;;;10.23;7.32;;;;;;;18.68;60.49;94469.47;4964016;28;20038;-79
2022/09/05 01:07:35;;;;;;;9.27;7.43;;;;;;;18.62;60.36;94457.41;4961405;28;20114;-81
2022/09/05 01:10:23;;;;;;;10.10;7.68;;;;;;;18.66;60.52;94466.38;4972601;28;20048;-79
2022/09/05 01:12:59;;;;;;;8.65;7.63;;;;;;;18.71;59.66;94474.22;4970139;28;20018;-80
2022/09/05 01:15:28;;;;;;;8.40;7.50;;;;;;;18.70;59.06;94475.34;4969550;28;20039;-80
2022/09/05 01:17:56;;;;;;;9.07;7.97;;;;;;;18.67;59.18;94473.31;4971965;28;20093;-81
2022/09/05 01:20:45;;;;;;;9.10;8.20;;;;;;;18.68;59.45;94474.06;4973625;28;20037;-80
2022/09/05 01:23:30;;;;;;;8.18;7.35;;;;;;;18.68;59.78;94471.38;4956253;28;20092;-82
2022/09/05 01:26:07;;;;;;;8.02;7.05;;;;;;;18.66;59.62;94469.06;4955391;28;20022;-79
2022/09/05 01:28:35;;;;;;;7.20;6.50;;;;;;;18.64;58.48;94465.13;4972898;28;20399;-80
2022/09/05 01:31:18;;;;;;;7.88;6.97;;;;;;;18.38;58.64;94428.72;4952629;28;20311;-80
2022/09/05 01:34:17;;;;;;;11.10;6.88;;;;;;;18.59;58.41;94462.69;4955019;28;20039;-80
2022/09/05 01:37:18;;;;;;;8.32;7.30;;;;;;;18.55;58.72;94454.53;4973305;28;20022;-80
2022/09/05 01:40:06;;;;;;;7.15;6.45;;;;;;;18.16;58.53;94398.94;4973008;28;20030;-79
2022/09/05 01:42:35;;;;;;;8.80;7.32;;;;;;;18.50;58.94;94451.31;4961301;28;20023;-81
2022/09/05 01:45:25;;;;;;;8.38;6.40;;;;;;;18.49;58.78;94453.22;4970560;28;20022;-78
2022/09/05 01:47:50;;;;;;;8.65;7.18;;;;;;;18.48;59.08;94459.75;4971188;28;20030;-79
2022/09/05 01:50:24;;;;;;;8.18;6.88;;;;;;;18.51;59.17;94452.88;4971459;28;20112;-80
2022/09/05 01:53:15;;;;;;;8.27;7.05;;;;;;;18.48;59.42;94465.13;4953519;28;20034;-81
2022/09/05 01:56:03;;;;;;;8.10;7.28;;;;;;;18.48;59.01;94465.13;4972461;28;20388;-80
2022/09/05 01:58:47;;;;;;;7.00;6.13;;;;;;;18.28;58.44;94425.78;4971230;28;20038;-78
2022/09/05 02:01:23;;;;;;;7.25;6.45;;;;;;;18.22;58.82;94424.47;4972038;28;20026;-80
2022/09/05 02:04:09;;;;;;;8.20;7.40;;;;;;;18.46;58.74;94470.09;4970085;28;20491;-80
2022/09/05 02:07:13;;;;;;;7.95;6.93;;;;;;;18.46;57.74;94465.50;4956406;28;20622;-81
2022/09/05 02:09:47;;;;;;;8.20;7.40;;;;;;;18.46;57.91;94468.19;4970250;28;20371;-79
2022/09/05 02:12:50;;;;;;;9.07;7.43;;;;;;;18.35;58.25;94452.88;4971670;28;20034;-79
2022/09/05 02:15:21;;;;;;;7.05;6.32;;;;;;;18.36;58.56;94467.91;4944780;28;20037;-79
2022/09/05 02:18:12;;;;;;;7.95;6.78;;;;;;;18.41;59.20;94471.13;4971069;28;20379;-79
2022/09/05 02:20:41;;;;;;;7.88;6.97;;;;;;;18.41;59.88;94465.75;4970202;28;20053;-81
2022/09/05 02:23:10;;;;;;;8.40;6.85;;;;;;;18.42;60.21;94461.94;4968869;28;20026;-80
2022/09/05 02:25:57;;;;;;;9.98;7.13;;;;;;;18.43;59.94;94449.25;4970174;28;20538;-80
2022/09/05 02:28:38;;;;;;;7.90;7.10;;;;;;;18.31;59.78;94433.94;4970611;28;20081;-78
2022/09/05 02:31:18;;;;;;;8.02;6.07;;;;;;;18.39;59.63;94446.44;4970234;28;20032;-82
2022/09/05 02:33:54;;;;;;;7.88;6.85;;;;;;;18.39;60.03;94451.84;4969869;28;20494;-79
2022/09/05 02:36:43;;;;;;;8.15;6.97;;;;;;;18.23;59.44;94426.03;4970455;28;20030;-80
2022/09/05 02:39:31;;;;;;;7.63;6.47;;;;;;;18.53;59.08;94470.25;4956849;28;20029;-80
2022/09/05 02:42:21;;;;;;;7.30;6.60;;;;;;;18.52;59.34;94460.63;4953393;28;20081;-79
2022/09/05 02:45:00;;;;;;;7.30;6.40;;;;;;;18.52;59.38;94466.03;4970964;28;20487;-78
2022/09/05 02:47:33;;;;;;;7.93;6.57;;;;;;;18.28;59.15;94425.78;4971667;28;20487;-80
2022/09/05 02:50:27;;;;;;;10.52;6.72;;;;;;;18.55;59.11;94469.91;4952994;28;20051;-80
2022/09/05 02:52:53;;;;;;;7.35;6.22;;;;;;;18.46;58.28;94462.00;4971892;28;20527;-81
2022/09/05 02:55:42;;;;;;;7.10;6.40;;;;;;;18.53;58.38;94472.94;4969818;28;20101;-79
2022/09/05 02:58:19;;;;;;;8.00;6.45;;;;;;;18.46;57.99;94456.63;4970750;28;20044;-79
2022/09/05 03:01:05;;;;;;;5.95;4.90;;;;;;;18.50;57.35;94476.34;4970590;28;20103;-79
2022/09/05 03:04:05;;;;;;;9.70;5.25;;;;;;;18.54;57.41;94474.50;4954057;28;20080;-79
2022/09/05 03:07:04;;;;;;;6.43;5.07;;;;;;;18.51;57.63;94472.53;4954655;28;20118;-80
2022/09/05 03:09:51;;;;;;;6.53;5.60;;;;;;;18.47;58.31;94477.06;4969940;28;20090;-80
2022/09/05 03:12:38;;;;;;;5.47;4.82;;;;;;;18.45;57.90;94482.78;4971334;28;20030;-79
2022/09/05 03:15:31;;;;;;;6.22;4.95;;;;;;;18.45;57.93;94477.38;4972230;28;20033;-80
2022/09/05 03:18:45;;;;;;;5.78;4.60;;;;;;;18.44;58.06;94481.19;4968781;28;20072;-78
2022/09/05 03:21:48;;;;;;;7.38;4.93;;;;;;;18.45;57.06;94473.91;4969938;28;20030;-82
2022/09/05 03:24:47;;;;;;;6.43;4.65;;;;;;;18.40;57.24;94479.56;4969982;28;20026;-78
2022/09/05 03:27:50;;;;;;;5.57;4.40;;;;;;;18.35;57.87;94488.66;4968836;28;20049;-78
2022/09/05 03:30:18;;;;;;;5.72;4.38;;;;;;;18.31;58.38;94487.00;4970833;28;20058;-79
2022/09/05 03:32:58;;;;;;;5.07;4.40;;;;;;;18.34;58.85;94486.31;4970675;28;20057;-78
2022/09/05 03:35:54;;;;;;;5.10;4.22;;;;;;;18.33;59.21;94485.53;4971659;28;20037;-80
2022/09/05 03:38:47;;;;;;;7.00;4.70;;;;;;;18.33;58.67;94492.84;4958484;28;20030;-79
2022/09/05 03:41:44;;;;;;;5.20;4.47;;;;;;;18.32;58.91;94492.06;4974117;28;20026;-78
2022/09/05 03:44:22;;;;;;;5.10;4.60;;;;;;;18.14;59.21;94471.94;4965288;28;20486;-78
2022/09/05 03:47:18;;;;;;;6.10;5.05;;;;;;;18.35;59.21;94493.25;4956555;28;20030;-79
2022/09/05 03:50:07;;;;;;;6.65;4.97;;;;;;;18.33;59.33;94495.53;4974849;28;20032;-79
2022/09/05 03:52:48;;;;;;;10.55;5.70;;;;;;;18.31;59.62;94498.56;4972818;28;20030;-80
2022/09/05 03:55:25;;;;;;;9.95;7.03;;;;;;;18.28;60.05;94507.34;4973694;28;20030;-80
2022/09/05 03:58:12;;;;;;;7.18;6.07;;;;;;;18.32;59.46;94510.13;4975469;28;20364;-79
2022/09/05 04:00:46;;;;;;;8.32;6.30;;;;;;;18.30;59.18;94505.06;4972538;28;20034;-78
2022/09/05 04:03:41;;;;;;;9.85;6.47;;;;;;;18.39;59.39;94516.47;4974053;28;20057;-79
2022/09/05 04:06:17;;;;;;;7.15;6.35;;;;;;;18.36;60.07;94516.38;4944053;28;20643;-78
2022/09/05 04:08:55;;;;;;;6.88;5.93;;;;;;;18.43;60.74;94522.72;4973845;28;20372;-78
2022/09/05 04:11:36;;;;;;;8.35;6.57;;;;;;;18.43;60.66;94511.19;4975152;28;20491;-80
2022/09/05 04:14:08;;;;;;;7.13;6.07;;;;;;;18.22;60.76;94483.69;4973839;28;20155;-80
2022/09/05 04:16:55;;;;;;;7.63;6.28;;;;;;;18.48;60.76;94527.84;4973111;28;20026;-78
2022/09/05 04:19:43;;;;;;;10.68;5.70;;;;;;;18.51;60.91;94529.09;4974773;28;20038;-79
2022/09/05 04:22:39;;;;;;;7.40;6.38;;;;;;;18.25;60.61;94491.06;4962305;28;20612;-80
2022/09/05 04:25:14;;;;;;;8.55;5.97;;;;;;;18.52;60.42;94535.25;4975041;28;20038;-79
2022/09/05 04:27:53;;;;;;;7.05;5.93;;;;;;;18.40;59.96;94511.88;4973586;28;20118;-80
2022/09/05 04:30:47;;;;;;;6.97;5.95;;;;;;;18.43;59.89;94522.72;4975207;28;20608;-79
2022/09/05 04:33:24;;;;;;;6.45;5.28;;;;;;;18.59;59.48;94549.69;4972407;28;20097;-81
2022/09/05 04:36:29;;;;;;;8.57;5.53;;;;;;;18.61;58.50;94554.75;4972273;28;20044;-78
2022/09/05 04:39:16;;;;;;;8.45;5.00;;;;;;;18.60;58.62;94553.16;4963145;28;20311;-79
2022/09/05 04:42:04;;;;;;;6.88;4.95;;;;;;;18.64;58.00;94560.22;4973012;28;20410;-81
2022/09/05 04:44:53;;;;;;;6.78;5.35;;;;;;;18.62;58.09;94559.78;4949402;28;20041;-80
2022/09/05 04:47:34;;;;;;;5.88;4.93;;;;;;;18.60;57.52;94563.94;4967294;28;20130;-78
2022/09/05 04:50:07;;;;;;;5.95;5.35;;;;;;;18.51;57.35;94547.16;4972911;28;20573;-81
2022/09/05 04:53:27;;;;;;;5.82;5.13;;;;;;;18.57;56.61;94576.22;4972653;28;20026;-78
2022/09/05 04:55:56;;;;;;;7.10;4.97;;;;;;;18.21;57.19;94536.75;4885017;29;20042;-78
2022/09/05 04:58:34;;;;;;;8.43;5.32;;;;;;;18.48;57.42;94578.25;4967778;28;20475;-79
2022/09/05 05:01:07;;;;;;;6.32;4.47;;;;;;;18.24;57.95;94546.03;4974658;28;20022;-80
2022/09/05 05:03:35;;;;;;;6.32;4.95;;;;;;;18.55;57.51;94594.63;4972833;28;20026;-80
2022/09/05 05:06:06;;;;;;;6.53;4.53;;;;;;;18.59;57.46;94600.88;4957086;28;20555;-78
2022/09/05 05:08:50;;;;;;;5.15;4.03;;;;;;;18.61;57.11;94601.31;4971665;28;20064;-80
2022/09/05 05:11:53;;;;;;;6.03;4.40;;;;;;;18.61;56.57;94604.03;4972654;28;20664;-79
2022/09/05 05:14:59;;;;;;;4.30;3.67;;;;;;;18.51;56.02;94596.44;4971217;28;20035;-78
2022/09/05 05:17:31;;;;;;;6.07;5.00;;;;;;;18.54;57.07;94606.50;4960979;28;20042;-81
2022/09/05 05:20:22;;;;;;;4.95;3.90;;;;;;;18.22;56.91;94553.69;4972370;28;20022;-80
2022/09/05 05:23:02;;;;;;;5.88;4.20;;;;;;;18.55;56.86;94610.78;4960010;28;20492;-78
2022/09/05 05:25:40;;;;;;;5.30;4.63;;;;;;;18.48;57.42;94599.78;4957745;28;20018;-81
2022/09/05 05:28:18;;;;;;;4.95;4.43;;;;;;;18.53;56.00;94613.00;4952995;28;20498;-78
2022/09/05 05:30:43;;;;;;;5.65;4.03;;;;;;;18.48;56.82;94607.88;4972336;28;20033;-79
2022/09/05 05:33:34;;;;;;;4.85;4.25;;;;;;;18.56;57.23;94617.75;4972438;28;20082;-80
2022/09/05 05:36:02;;;;;;;6.63;5.40;;;;;;;18.55;57.67;94616.16;4961605;28;20109;-78
2022/09/05 05:38:38;;;;;;;5.35;4.50;;;;;;;18.43;57.75;94595.44;4970963;28;20379;-80
2022/09/05 05:41:13;;;;;;;6.05;4.65;;;;;;;18.63;56.92;94623.28;4971368;28;20022;-79
2022/09/05 05:43:41;;;;;;;6.95;4.45;;;;;;;18.39;56.81;94594.56;4971007;28;20069;-78
2022/09/05 05:46:14;;;;;;;6.05;4.88;;;;;;;18.56;57.28;94611.56;4972698;28;20031;-80
2022/09/05 05:48:40;;;;;;;6.10;5.15;;;;;;;18.71;56.81;94627.00;4971344;28;20022;-80
2022/09/05 05:51:38;;;;;;;6.30;5.22;;;;;;;18.75;57.17;94633.28;4972712;28;20023;-78
2022/09/05 05:54:21;;;;;;;7.32;4.75;;;;;;;18.83;55.97;94626.94;4956494;28;20406;-78
2022/09/05 05:56:53;;;;;;;4.60;4.20;;;;;;;18.93;54.56;94622.94;4954349;28;20096;-78
2022/09/05 05:59:27;;;;;;;5.95;4.53;;;;;;;18.92;53.99;94630.25;4953452;28;20052;-79
2022/09/05 06:02:35;;;;;;;5.22;4.53;;;;;;;18.59;54.16;94573.94;4954951;28;20061;-81
2022/09/05 06:05:19;;;;;;;7.53;4.22;;;;;;;18.66;53.75;94582.22;4956550;28;20475;-79
2022/09/05 06:08:09;;;;;;;6.75;4.57;;;;;;;19.07;53.57;94621.41;4972313;28;20042;-79
2022/09/05 06:10:59;;;;;;;5.25;4.70;;;;;;;19.12;53.38;94629.22;4954890;28;20049;-80
2022/09/05 06:13:59;;;;;;;4.38;3.75;;;;;;;19.15;53.75;94633.94;4970448;28;20050;-80
2022/09/05 06:16:43;;;;;;;4.72;4.00;;;;;;;19.19;53.77;94631.34;4960944;28;20159;-79
2022/09/05 06:19:24;;;;;;;6.43;4.28;;;;;;;19.15;53.32;94622.38;4954585;28;20022;-78
2022/09/05 06:21:56;;;;;;;5.47;4.32;;;;;;;19.04;53.81;94588.97;4955708;28;20126;-78
2022/09/05 06:24:46;;;;;;;6.05;4.32;;;;;;;19.16;53.24;94594.28;4972279;28;20053;-82
2022/09/05 06:27:29;;;;;;;4.32;3.88;;;;;;;19.38;53.10;94631.41;4970524;28;20924;-80
2022/09/05 06:30:09;;;;;;;4.47;3.80;;;;;;;19.45;52.09;94628.94;4953156;28;20026;-79
2022/09/05 06:32:57;;;;;;;3.47;2.92;;;;;;;19.33;50.23;94631.69;4969562;28;20478;-80
2022/09/05 06:35:29;;;;;;;3.97;3.45;;;;;;;19.14;51.67;94604.63;4956464;28;20396;-77
2022/09/05 06:38:20;;;;;;;4.07;3.60;;;;;;;19.40;51.27;94645.34;4971761;28;20030;-78
2022/09/05 06:40:59;;;;;;;2.25;1.83;;;;;;;19.10;49.67;94609.94;4970437;28;20479;-78
2022/09/05 06:43:42;;;;;;;2.65;2.20;;;;;;;19.38;50.47;94653.00;4970732;28;20684;-79
2022/09/05 06:46:30;;;;;;;3.50;2.67;;;;;;;19.40;50.38;94653.44;4971857;28;20034;-80
2022/09/05 06:49:20;;;;;;;2.65;2.08;;;;;;;19.33;49.79;94642.47;4956150;28;20030;-80
2022/09/05 06:52:28;;;;;;;4.18;2.92;;;;;;;19.38;49.96;94647.59;4969678;28;20033;-79
2022/09/05 06:55:31;;;;;;;6.55;3.72;;;;;;;19.37;50.47;94656.03;4934688;28;20042;-80
2022/09/05 06:58:35;;;;;;;4.60;3.47;;;;;;;19.41;50.73;94657.69;4970000;28;20064;-78
2022/09/05 07:01:03;;;;;;;4.90;3.15;;;;;;;19.13;52.23;94624.63;4971134;28;20034;-78
2022/09/05 07:04:00;;;;;;;5.13;3.55;;;;;;;19.44;51.63;94657.00;4970433;28;20680;-79
2022/09/05 07:06:58;;;;;;;3.47;3.15;;;;;;;19.23;50.65;94603.31;4969817;28;20036;-78
2022/09/05 07:09:52;;;;;;;3.10;2.80;;;;;;;19.57;50.69;94644.22;4969292;28;20479;-78
2022/09/05 07:12:27;;;;;;;6.28;3.42;;;;;;;19.58;50.36;94648.50;4954089;28;20030;-81
2022/09/05 07:15:25;;;;;;;3.50;3.00;;;;;;;19.61;50.72;94650.47;4971161;28;20052;-80
2022/09/05 07:18:20;;;;;;;3.78;3.17;;;;;;;19.40;50.17;94596.78;4970930;28;20181;-79
2022/09/05 07:20:53;;;;;;;3.38;2.65;;;;;;;19.72;48.29;94638.81;4971866;28;20491;-79
2022/09/05 07:23:47;;;;;;;3.33;2.78;;;;;;;19.66;48.58;94629.41;4970077;28;20038;-77
2022/09/05 07:26:17;;;;;;;5.78;2.90;;;;;;;19.73;49.26;94629.59;4965865;28;20128;-79
2022/09/05 07:28:47;;;;;;;3.50;2.72;;;;;;;19.86;49.45;94640.25;4970568;28;20035;-78
2022/09/05 07:31:21;;;;;;;2.65;2.30;;;;;;;19.81;47.31;94621.63;4971113;28;20018;-78
2022/09/05 07:33:49;;;;;;;2.10;1.90;;;;;;;19.75;46.42;94608.41;4972089;28;20123;-79
2022/09/05 07:36:22;;;;;;;3.13;2.08;;;;;;;19.97;47.34;94630.50;4968575;28;20488;-78
2022/09/05 07:38:50;;;;;;;1.83;1.60;;;;;;;20.00;47.36;94627.06;4970419;28;20037;-78
2022/09/05 07:41:30;;;;;;;4.03;2.97;;;;;;;19.86;47.83;94602.47;4971301;28;20125;-79
2022/09/05 07:44:11;;;;;;;3.22;2.10;;;;;;;20.04;45.31;94636.06;4969017;28;20022;-79
2022/09/05 07:46:39;;;;;;;2.30;1.98;;;;;;;19.93;46.44;94614.22;4955421;28;20574;-80
2022/09/05 07:49:09;;;;;;;2.90;2.00;;;;;;;20.03;45.69;94626.38;4970658;28;20027;-78
2022/09/05 07:51:39;;;;;;;2.50;1.83;;;;;;;19.96;45.77;94618.13;4970983;28;20026;-80
2022/09/05 07:54:18;;;;;;;3.10;2.10;;;;;;;19.98;44.99;94626.66;4967122;28;20034;-80
2022/09/05 07:56:52;;;;;;;3.65;2.55;;;;;;;20.01;46.14;94642.94;4969337;28;20057;-80
2022/09/05 07:59:21;;;;;;;2.13;1.92;;;;;;;19.91;45.40;94642.69;4967937;28;20023;-79
2022/09/05 08:01:49;;;;;;;2.83;2.10;;;;;;;19.84;45.99;94639.84;4969685;28;20051;-79
2022/09/05 08:04:41;;;;;;;2.80;2.25;;;;;;;19.42;45.56;94588.34;4970122;28;20597;-79
2022/09/05 08:07:45;;;;;;;2.70;2.50;;;;;;;19.75;46.90;94632.69;4967490;28;20038;-78
2022/09/05 08:10:15;;;;;;;2.28;2.03;;;;;;;19.78;46.68;94643.94;4898549;29;20115;-79
2022/09/05 08:12:56;;;;;;;3.72;2.22;;;;;;;19.44;45.89;94603.06;4958198;28;20406;-78
2022/09/05 08:15:27;;;;;;;2.45;2.20;;;;;;;19.62;47.28;94623.16;4968990;28;20693;-78
2022/09/05 08:18:09;;;;;;;3.20;2.20;;;;;;;19.65;45.91;94646.72;4969748;28;20042;-79
2022/09/05 08:20:41;;;;;;;3.42;2.33;;;;;;;19.71;46.42;94641.84;4970244;28;20033;-78
2022/09/05 08:23:24;;;;;;;2.30;2.05;;;;;;;19.73;45.57;94643.09;4954544;28;20031;-78
2022/09/05 08:26:01;;;;;;;2.17;1.77;;;;;;;19.69;46.20;94638.75;4959241;28;20372;-80
2022/09/05 08:28:39;;;;;;;2.05;1.80;;;;;;;19.78;45.34;94646.63;4971691;28;20134;-79
2022/09/05 08:31:19;;;;;;;2.15;1.63;;;;;;;19.42;44.95;94589.13;4973623;28;20027;-78
2022/09/05 08:33:47;;;;;;;2.25;1.75;;;;;;;19.56;44.60;94618.38;4974089;28;20093;-79
2022/09/05 08:36:30;;;;;;;2.92;2.03;;;;;;;19.82;45.91;94644.81;4972453;28;20066;-79
2022/09/05 08:38:59;;;;;;;3.13;2.30;;;;;;;19.63;47.07;94610.44;4975086;28;20061;-79
2022/09/05 08:42:07;;;;;;;4.05;3.08;;;;;;;19.80;46.87;94647.09;4973108;28;20030;-80
2022/09/05 08:44:40;;;;;;;2.30;2.03;;;;;;;19.85;46.25;94654.91;4961429;28;20132;-80
2022/09/05 08:47:08;;;;;;;2.13;1.80;;;;;;;19.89;47.03;94644.97;4972320;28;20463;-80
2022/09/05 08:49:54;;;;;;;3.22;2.25;;;;;;;20.01;46.18;94650.25;4973114;28;20466;-80
2022/09/05 08:52:50;;;;;;;4.15;3.08;;;;;;;20.07;46.14;94646.13;4972854;28;20033;-78
2022/09/05 08:55:26;;;;;;;2.60;2.10;;;;;;;20.10;45.94;94645.41;4971021;28;20368;-80
2022/09/05 08:58:00;;;;;;;4.22;2.20;;;;;;;20.22;48.21;94641.84;4972709;28;21420;-80
2022/09/05 09:00:31;;;;;;;2.70;2.00;;;;;;;20.00;45.94;94618.97;4972073;28;20502;-78
2022/09/05 09:03:05;;;;;;;3.08;2.28;;;;;;;20.20;46.84;94634.09;4962953;28;20132;-78
2022/09/05 09:05:59;;;;;;;3.10;2.15;;;;;;;20.39;46.24;94644.91;4954674;28;20026;-77
2022/09/05 09:08:49;;;;;;;2.50;2.05;;;;;;;20.32;44.32;94623.19;4970408;28;20036;-77
2022/09/05 09:11:39;;;;;;;2.63;2.10;;;;;;;20.13;44.11;94590.72;4973170;28;20042;-77
2022/09/05 09:14:29;;;;;;;2.20;2.00;;;;;;;20.56;43.82;94652.63;4972716;28;20049;-79
2022/09/05 09:17:17;;;;;;;2.55;1.98;;;;;;;20.54;43.83;94644.06;4972176;28;20116;-77
2022/09/05 09:20:24;;;;;;;2.65;1.95;;;;;;;20.60;43.69;94652.69;4957707;28;20022;-79
2022/09/05 09:23:14;;;;;;;2.50;1.90;;;;;;;20.32;44.72;94600.78;4947084;28;20423;-81
2022/09/05 09:26:12;;;;;;;2.78;1.60;;;;;;;20.68;42.52;94648.97;4972963;28;20077;-80
2022/09/05 09:28:54;;;;;;;3.25;1.63;;;;;;;20.60;42.31;94637.25;4974443;28;20538;-79
2022/09/05 09:31:39;;;;;;;2.45;1.88;;;;;;;20.72;42.43;94657.16;4972057;28;20598;-80
2022/09/05 09:34:07;;;;;;;2.47;1.90;;;;;;;20.73;42.22;94654.09;4953893;28;20062;-81
2022/09/05 09:37:11;;;;;;;2.90;2.03;;;;;;;20.72;42.09;94649.06;4971195;28;20041;-80
2022/09/05 09:40:14;;;;;;;2.28;1.60;;;;;;;20.72;41.64;94640.94;4970802;28;20513;-80
2022/09/05 09:43:03;;;;;;;2.10;1.73;;;;;;;20.67;41.96;94635.81;4971680;28;20027;-80
2022/09/05 09:46:00;;;;;;;1.65;1.40;;;;;;;20.76;42.22;94644.50;4971005;28;20026;-79
2022/09/05 09:48:51;;;;;;;3.55;2.15;;;;;;;20.60;42.89;94606.72;4970090;28;20026;-81
2022/09/05 09:51:36;;;;;;;2.00;1.80;;;;;;;20.72;43.30;94616.63;4953883;28;20416;-80
2022/09/05 09:54:04;;;;;;;4.40;2.55;;;;;;;20.80;41.96;94623.72;4972477;28;20113;-79
2022/09/05 09:56:58;;;;;;;2.88;2.35;;;;;;;20.78;44.49;94623.28;4971092;28;20038;-80
2022/09/05 09:59:44;;;;;;;2.42;1.80;;;;;;;20.82;43.39;94624.16;4972352;28;20031;-80
2022/09/05 10:02:33;;;;;;;3.92;1.50;;;;;;;20.89;42.51;94614.25;4971438;28;20085;-79
2022/09/05 10:05:33;;;;;;;1.52;1.40;;;;;;;20.94;42.28;94619.38;4972927;28;20049;-79
2022/09/05 10:08:36;;;;;;;1.92;1.40;;;;;;;20.97;41.84;94609.78;4957477;28;20026;-79
2022/09/05 10:11:23;;;;;;;1.63;1.45;;;;;;;21.00;42.28;94612.53;4969602;28;20391;-79
2022/09/05 10:14:07;;;;;;;2.20;1.70;;;;;;;20.97;41.98;94605.13;4972762;28;20509;-79
2022/09/05 10:17:03;;;;;;;3.05;1.75;;;;;;;20.99;41.08;94610.19;4954732;28;20069;-80
2022/09/05 10:19:55;;;;;;;2.60;1.80;;;;;;;21.03;41.35;94605.59;4970426;28;20558;-79
2022/09/05 10:22:42;;;;;;;2.70;1.48;;;;;;;21.05;40.93;94594.44;4948689;28;20041;-81
2022/09/05 10:25:24;;;;;;;1.88;1.40;;;;;;;20.96;40.90;94567.66;4970500;28;20126;-81
2022/09/05 10:28:21;;;;;;;1.83;1.48;;;;;;;21.20;41.01;94594.34;4972336;28;20078;-80
2022/09/05 10:31:01;;;;;;;2.92;1.58;;;;;;;21.00;39.93;94565.78;4971568;28;20033;-77
2022/09/05 10:33:30;;;;;;;2.10;1.65;;;;;;;21.19;40.57;94597.38;4953410;28;20516;-79
2022/09/05 10:36:30;;;;;;;2.17;1.63;;;;;;;20.95;41.22;94555.25;4970304;28;20034;-80
2022/09/05 10:39:19;;;;;;;2.45;1.58;;;;;;;21.22;40.34;94585.84;4944786;28;20045;-81
2022/09/05 10:41:52;;;;;;;3.03;2.30;;;;;;;21.25;40.21;94585.13;4970282;28;20037;-79
2022/09/05 10:44:40;;;;;;;5.30;1.83;;;;;;;21.10;39.99;94551.66;4969847;28;20026;-79
2022/09/05 10:47:24;;;;;;;2.28;1.52;;;;;;;21.25;40.36;94580.50;4966571;28;20070;-79
2022/09/05 10:50:05;;;;;;;2.00;1.43;;;;;;;21.15;40.19;94547.88;4954575;28;20053;-79
2022/09/05 10:52:35;;;;;;;1.92;1.60;;;;;;;21.37;41.54;94577.59;4970244;28;20098;-81
2022/09/05 10:55:44;;;;;;;1.83;1.45;;;;;;;21.42;41.73;94579.97;4972187;28;20033;-81
2022/09/05 10:58:28;;;;;;;2.20;1.50;;;;;;;21.52;39.38;94585.91;4960854;28;20077;-79
2022/09/05 11:01:01;;;;;;;2.78;1.40;;;;;;;21.41;40.02;94551.34;4969665;28;20479;-79
2022/09/05 11:03:44;;;;;;;2.03;1.30;;;;;;;21.62;38.17;94590.75;4972868;28;20026;-79
2022/09/05 11:06:15;;;;;;;1.33;1.10;;;;;;;21.67;38.53;94583.09;4954407;28;20014;-81
2022/09/05 11:08:52;;;;;;;2.60;1.55;;;;;;;21.69;39.69;94578.09;4970476;28;20431;-78
2022/09/05 11:11:22;;;;;;;3.13;2.10;;;;;;;21.69;39.70;94571.91;4954359;28;21561;-79
2022/09/05 11:13:59;;;;;;;1.80;1.58;;;;;;;21.77;39.33;94571.66;4970775;28;20026;-77
2022/09/05 11:16:24;;;;;;;1.85;1.70;;;;;;;21.83;39.26;94569.41;4955274;28;20511;-79
2022/09/05 11:18:56;;;;;;;2.58;1.92;;;;;;;21.59;39.44;94548.19;4970398;28;20038;-81
2022/09/05 11:21:36;;;;;;;2.38;1.40;;;;;;;21.76;38.97;94561.16;4970070;28;20049;-80
2022/09/05 11:24:23;;;;;;;3.40;2.25;;;;;;;21.80;39.06;94560.06;4970024;28;20569;-81
2022/09/05 11:27:07;;;;;;;3.88;1.40;;;;;;;21.86;38.67;94557.81;4969987;28;20030;-79
2022/09/05 11:29:47;;;;;;;2.45;1.70;;;;;;;21.88;38.43;94563.66;4953694;28;20118;-81
2022/09/05 11:32:31;;;;;;;2.42;1.77;;;;;;;21.97;38.81;94558.75;4971536;28;20054;-82
2022/09/05 11:35:09;;;;;;;2.13;1.43;;;;;;;22.04;39.26;94556.16;4953216;28;20038;-80
2022/09/05 11:38:08;;;;;;;12.30;2.28;;;;;;;22.07;40.04;94552.69;4970210;28;20077;-80
2022/09/05 11:41:15;;;;;;;3.15;2.35;;;;;;;22.13;39.61;94558.56;4970949;28;20029;-81
2022/09/05 11:43:52;;;;;;;1.90;1.67;;;;;;;22.11;38.85;94556.22;4954872;28;20061;-80
2022/09/05 11:46:26;;;;;;;2.10;1.73;;;;;;;22.06;38.70;94553.06;4971856;28;20046;-79
2022/09/05 11:49:14;;;;;;;2.80;1.88;;;;;;;22.07;38.40;94552.69;4968368;28;20192;-81
2022/09/05 11:52:10;;;;;;;2.20;1.35;;;;;;;22.05;39.05;94548.78;4952579;28;20031;-79
2022/09/05 11:55:00;;;;;;;1.85;1.50;;;;;;;21.98;38.61;94546.78;4969143;28;20066;-80
2022/09/05 11:57:41;;;;;;;1.65;1.35;;;;;;;22.03;39.27;94541.03;4970973;28;20122;-81
2022/09/05 12:00:12;;;;;;;2.85;1.35;;;;;;;22.06;38.79;94547.63;4956836;28;20026;-79
2022/09/05 12:03:16;;;;;;;1.75;1.52;;;;;;;22.09;38.41;94526.03;4973991;28;20040;-80
2022/09/05 12:05:53;;;;;;;2.53;1.88;;;;;;;22.15;38.13;94540.00;4957018;28;20039;-79
2022/09/05 12:08:45;;;;;;;4.70;1.75;;;;;;;22.12;38.32;94525.28;4970901;28;20033;-79
2022/09/05 12:11:20;;;;;;;3.88;1.92;;;;;;;22.26;38.77;94525.47;4973236;28;20096;-79
2022/09/05 12:13:46;;;;;;;;;;;;;;;22.25;38.67;94526.63;4974710;28;20031;-79
2022/09/05 12:16:46;;;;;;;4.28;1.67;;;;;;;22.21;38.34;94517.69;4971410;28;20014;-82
2022/09/05 12:19:23;;;;;;;1.63;1.20;;;;;;;21.93;38.68;94465.88;4955836;28;20037;-79
2022/09/05 12:22:04;;;;;;;2.28;1.80;;;;;;;22.34;38.02;94522.84;4974556;28;20081;-79
2022/09/05 12:24:40;;;;;;;1.60;1.40;;;;;;;22.38;38.19;94529.09;4975423;28;20042;-80
2022/09/05 12:27:09;;;;;;;2.08;1.50;;;;;;;22.28;37.92;94527.81;4972908;28;20490;-79
2022/09/05 12:29:39;;;;;;;1.52;1.40;;;;;;;22.31;38.29;94527.06;4973512;28;20034;-81
2022/09/05 12:32:25;;;;;;;1.75;1.45;;;;;;;22.36;38.00;94525.97;4974051;28;20708;-80
2022/09/05 12:34:50;;;;;;;2.40;1.80;;;;;;;22.33;38.09;94521.28;4962548;28;20138;-79
2022/09/05 12:37:45;;;;;;;2.58;1.58;;;;;;;22.23;37.60;94525.44;4972001;28;20802;-81
2022/09/05 12:40:14;;;;;;;1.93;1.50;;;;;;;22.22;37.68;94524.66;4966628;28;20384;-79
2022/09/05 12:42:53;;;;;;;2.22;1.83;;;;;;;22.15;37.38;94523.75;4973336;28;20133;-79
2022/09/05 12:45:39;;;;;;;3.13;2.08;;;;;;;22.15;37.52;94519.13;4962042;28;20446;-80
2022/09/05 12:48:16;;;;;;;1.70;1.50;;;;;;;22.18;37.92;94523.81;4956295;28;20026;-79
2022/09/05 12:50:58;;;;;;;2.33;1.50;;;;;;;21.97;38.42;94495.69;4955333;28;20039;-79